Date,TemperatureHighF,TemperatureAvgF,TemperatureLowF,DewpointHighF,DewpointAvgF,DewpointLowF,HumidityHigh,HumidityAvg,HumidityLow,PressureMaxIn,PressureMinIn,WindSpeedMaxMPH,WindSpeedAvgMPH,GustSpeedMaxMPH,PrecipitationSumIn
2013-1-1,21,15,6,15,11,3,92,83,74,30.38,30.19,11,4,12,0.00
2013-1-2,36,25,12,30,21,8,92,84,76,30.28,30.11,8,3,10,0.02
2013-1-3,31,25,17,27,21,14,89,82,72,30.45,30.27,12,5,13,0.00
2013-1-4,32,22,15,21,16,12,91,79,63,30.36,30.18,9,5,11,0.00
2013-1-5,32,25,19,25,20,15,91,81,67,30.20,30.05,19,5,24,0.00
2013-1-6,30,29,27,24,23,22,82,79,76,30.22,30.15,10,8,13,0.00
2013-1-7,39,34,25,30,27,23,93,76,67,30.15,29.95,17,6,20,0.00
2013-1-8,39,29,18,32,25,16,95,86,74,30.17,29.86,10,3,16,0.00
2013-1-9,46,35,26,34,29,23,90,79,62,30.45,30.17,7,2,9,0.00
2013-1-10,39,37,36,38,34,30,97,91,77,30.33,29.67,8,4,11,0.15
2013-1-11,52,42,26,46,39,18,98,90,73,29.77,29.34,16,9,21,0.01
2013-1-12,26,19,12,20,11,7,79,70,59,30.20,29.77,15,8,20,0.00
2013-1-13,21,14,8,10,7,3,83,73,56,30.41,30.19,11,4,18,0.00
2013-1-14,29,18,8,15,10,5,85,72,51,30.53,30.41,6,1,18,0.00
2013-1-15,35,24,14,23,17,10,85,74,59,30.41,30.07,9,5,18,0.00
2013-1-16,52,36,23,35,28,17,85,72,50,30.25,29.96,10,6,18,0.00
2013-1-17,46,34,26,38,30,25,97,88,62,30.47,30.25,7,2,18,0.00
2013-1-18,52,40,32,36,31,28,90,72,52,30.29,29.89,17,7,23,0.00
2013-1-19,53,41,25,34,29,14,83,64,46,30.33,29.87,16,8,18,0.00
2013-1-20,24,19,15,17,11,8,81,70,56,30.47,30.31,11,4,18,0.00
2013-1-21,18,14,10,14,4,-3,92,67,52,30.52,30.41,13,5,18,0.00
2013-1-22,23,18,13,14,10,6,82,72,62,30.45,30.28,8,4,18,0.00
2013-1-23,32,21,13,21,14,6,84,73,59,30.53,30.21,14,6,19,0.00
2013-1-24,21,12,3,8,1,-4,77,62,51,30.59,30.23,10,6,18,0.00
2013-1-25,52,32,17,28,19,7,81,61,35,30.27,30.17,9,3,13,0.00
2013-1-26,57,37,20,30,24,17,91,63,28,30.26,29.98,14,6,16,0.00
2013-1-27,43,40,36,42,37,27,98,91,54,29.98,29.65,13,6,19,0.15
2013-1-28,44,39,34,43,38,33,98,98,97,29.84,29.55,7,3,13,0.01
2013-1-29,39,34,30,38,32,30,98,94,89,29.70,29.58,21,10,24,0.00
2013-1-30,30,22,13,30,18,10,100,85,73,29.99,29.65,26,13,32,0.00
2013-1-31,16,9,1,13,2,-5,87,73,62,30.52,29.98,22,9,24,0.00
2013-2-1,29,17,2,23,10,-3,85,75,67,30.50,30.12,16,8,21,0.00
2013-2-2,44,33,26,37,28,21,90,81,66,30.24,30.06,18,3,26,0.00
2013-2-3,44,36,24,32,28,22,91,74,52,30.24,29.79,13,6,18,0.00
2013-2-4,38,28,24,31,24,21,92,85,73,30.03,29.78,16,7,19,0.00
2013-2-5,51,39,27,35,29,25,93,70,43,30.06,29.86,16,5,23,0.00
2013-2-6,58,45,36,44,36,28,85,69,54,30.06,29.80,15,7,19,0.00
2013-2-7,42,34,29,38,30,26,92,85,79,30.26,29.86,16,10,21,0.00
2013-2-8,38,31,26,30,27,23,89,84,74,30.36,30.13,12,6,18,0.00
2013-2-9,52,40,31,41,34,28,91,79,63,30.15,29.63,18,13,25,0.00
2013-2-10,45,39,32,43,35,25,96,86,71,29.64,29.24,21,13,30,0.03
2013-2-11,40,32,26,27,24,22,86,71,56,30.18,30.05,14,6,19,0.00
2013-2-12,49,34,22,27,23,19,91,67,35,30.18,29.93,10,4,15,0.00
2013-2-13,55,40,26,32,28,22,87,64,35,29.93,29.74,8,2,15,0.00
2013-2-14,44,37,21,32,27,15,91,71,42,30.30,29.81,23,9,25,0.01
2013-2-15,34,25,16,26,18,12,87,77,54,30.40,30.30,18,6,22,0.00
2013-2-16,38,26,14,26,19,11,89,76,53,30.38,30.01,12,5,16,0.00
2013-2-17,60,41,24,35,29,21,90,66,35,30.02,29.52,15,8,26,0.00
2013-2-18,46,34,22,34,26,16,92,73,55,30.10,29.51,24,12,27,0.00
2013-2-19,28,19,12,18,7,1,79,60,31,30.42,30.10,17,10,20,0.00
2013-2-20,24,16,6,16,7,2,81,68,51,30.43,30.24,9,6,13,0.00
2013-2-21,24,22,21,20,16,10,93,78,54,30.28,29.87,10,7,19,0.00
2013-2-22,22,18,9,19,14,6,92,86,77,30.09,29.87,12,6,15,0.02
2013-2-23,37,21,7,29,17,4,90,83,68,30.07,29.87,10,6,14,0.02
2013-2-24,42,32,23,31,26,20,89,81,61,30.08,29.91,8,4,10,0.02
2013-2-25,34,30,27,31,26,24,92,87,80,30.09,29.91,11,6,13,0.00
2013-2-26,30,27,24,27,25,22,95,92,86,29.96,29.82,14,10,16,0.00
2013-2-27,40,32,25,29,26,22,94,80,61,30.14,29.93,25,15,30,0.00
2013-2-28,32,29,26,28,24,22,87,82,76,30.27,30.13,19,12,23,0.00
2013-3-1,32,26,20,22,19,16,84,76,63,30.40,30.25,15,10,19,0.00
2013-3-2,42,28,14,26,19,11,92,72,48,30.40,30.10,8,4,12,0.00
2013-3-3,45,36,28,34,29,24,87,76,64,30.10,29.67,15,8,18,0.00
2013-3-4,40,34,28,34,30,22,95,82,70,30.06,29.62,17,7,19,0.00
2013-3-5,35,28,22,22,20,16,82,71,57,30.43,30.05,25,14,30,0.00
2013-3-6,40,28,20,24,20,16,92,73,47,30.47,30.25,12,6,17,0.00
2013-3-7,56,37,25,31,24,-100,83,64,36,30.28,30.06,14,-3,23,0.00
2013-3-8,60,44,29,42,34,26,91,70,50,30.16,29.87,17,9,22,0.10
2013-3-9,59,48,34,54,45,32,95,89,82,29.87,29.49,20,9,31,0.13
2013-3-10,34,26,21,32,25,20,97,95,92,30.00,29.67,25,20,29,0.03
2013-3-11,33,24,14,24,19,12,94,82,62,30.06,29.93,18,7,21,0.05
2013-3-12,34,29,23,26,23,19,88,77,68,30.37,30.05,17,8,22,0.01
2013-3-13,43,28,15,28,21,13,93,76,51,30.49,30.25,11,4,18,0.00
2013-3-14,59,45,33,44,35,23,82,68,54,30.25,30.04,11,4,18,0.00
2013-3-15,63,50,40,47,41,34,92,72,50,30.04,29.67,10,5,18,0.00
2013-3-16,42,32,27,40,28,24,93,85,75,30.18,29.81,18,9,24,0.00
2013-3-17,47,35,25,34,27,22,91,76,58,30.16,29.73,13,8,19,0.01
2013-3-18,41,36,30,35,24,16,96,65,39,30.08,29.69,21,10,27,0.04
2013-3-19,52,35,24,34,22,17,82,60,32,30.35,30.07,17,5,21,0.00
2013-3-20,38,26,17,20,13,6,81,58,37,30.43,30.12,13,7,18,0.00
2013-3-21,32,27,21,22,18,14,89,70,61,30.12,29.92,11,5,18,0.00
2013-3-22,34,30,27,27,23,20,89,75,60,30.05,29.98,8,3,18,0.02
2013-3-23,37,32,29,31,27,22,94,82,65,30.12,30.02,10,5,14,0.02
2013-3-24,29,26,24,28,21,17,94,81,69,30.15,30.06,19,14,23,0.00
2013-3-25,30,27,24,25,22,20,91,81,70,30.39,30.14,21,14,24,0.00
2013-3-26,43,32,20,25,20,15,84,63,42,30.42,30.24,8,4,9,0.00
2013-3-27,53,39,27,34,28,22,82,64,46,30.27,30.15,12,6,18,0.00
2013-3-28,60,46,30,36,32,27,90,62,37,30.24,30.11,8,3,18,0.00
2013-3-29,69,54,37,41,35,31,86,53,27,30.19,29.98,13,6,21,0.00
2013-3-30,66,57,50,56,47,39,97,71,41,30.04,29.85,18,7,24,0.73
2013-3-31,58,49,33,44,36,28,94,62,32,30.11,29.90,15,8,19,0.05
2013-4-1,41,32,23,32,21,16,94,65,39,30.34,30.11,13,7,18,0.00
2013-4-2,52,40,25,29,24,16,75,54,38,30.35,30.23,7,2,18,0.00
2013-4-3,54,43,33,30,26,22,67,51,36,30.33,30.19,11,7,18,0.00
2013-4-4,63,47,30,41,34,26,88,62,43,30.22,30.03,9,4,18,0.00
2013-4-5,70,53,35,42,35,30,84,54,28,30.13,29.65,19,9,26,0.00
2013-4-6,71,61,54,47,43,39,75,53,34,29.73,29.54,18,9,23,0.00
2013-4-7,73,58,42,52,43,38,95,61,29,29.77,29.55,14,4,18,0.69
2013-4-8,67,58,47,61,55,46,98,90,79,29.64,29.57,11,5,18,0.01
2013-4-9,64,46,33,61,44,32,100,94,87,29.97,29.46,20,12,27,0.74
2013-4-10,36,34,31,34,32,30,97,96,92,30.00,29.78,17,10,20,0.17
2013-4-11,36,32,29,33,29,27,97,89,81,29.84,29.69,10,6,18,0.02
2013-4-12,45,36,31,34,30,27,88,77,60,30.03,29.77,16,9,20,0.01
2013-4-13,57,44,28,42,34,26,90,72,53,30.05,29.61,15,7,22,0.00
2013-4-14,65,57,46,52,41,30,73,55,38,29.66,29.25,18,7,25,0.00
2013-4-15,46,40,35,32,28,22,78,62,54,30.08,29.65,12,6,20,0.00
2013-4-16,50,42,35,36,31,29,83,66,46,30.23,30.06,8,6,20,0.00
2013-4-17,46,41,36,41,38,34,100,89,67,30.14,29.68,20,9,26,0.59
2013-4-18,36,34,30,34,31,27,96,89,76,29.95,29.71,23,17,30,0.19
2013-4-19,48,37,28,29,25,22,84,64,42,30.12,29.92,19,9,20,0.00
2013-4-20,48,38,27,31,26,22,86,64,44,30.25,30.10,15,6,21,0.00
2013-4-21,68,55,45,50,41,31,93,60,38,30.13,29.93,20,10,29,0.36
2013-4-22,52,43,33,50,41,29,97,94,86,30.21,29.90,21,9,25,1.02
2013-4-23,38,33,28,29,26,22,88,75,60,30.29,30.17,19,13,25,0.00
2013-4-24,60,41,25,38,28,22,88,65,28,30.24,30.05,15,5,18,0.00
2013-4-25,69,52,33,41,35,29,85,57,28,30.25,29.97,17,8,20,0.00
2013-4-26,68,58,50,52,45,38,89,63,48,30.14,29.97,14,9,16,0.00
2013-4-27,70,56,44,53,48,43,97,78,44,30.14,29.89,11,4,16,0.00
2013-4-28,81,65,48,57,51,46,94,65,34,29.90,29.61,15,8,23,0.00
2013-4-29,84,68,55,57,52,46,79,59,29,29.73,29.44,12,4,18,0.00
2013-4-30,70,65,60,51,47,39,62,52,46,29.79,29.62,10,7,17,0.02
2013-5-1,60,41,33,43,37,32,97,87,49,30.42,29.78,19,13,25,0.56
2013-5-2,50,40,33,37,32,29,97,75,50,30.57,30.39,20,12,24,0.34
2013-5-3,51,41,30,35,30,27,92,67,46,30.40,30.03,17,10,24,0.00
2013-5-4,43,40,37,40,37,31,94,88,65,30.15,29.97,17,13,28,0.00
2013-5-5,56,47,41,50,43,39,92,87,77,30.18,30.09,12,8,17,0.00
2013-5-6,68,56,47,53,48,45,93,78,54,30.14,29.99,7,3,17,0.00
2013-5-7,72,60,46,60,53,44,95,79,52,30.03,29.87,9,3,17,0.12
2013-5-8,68,62,57,61,57,53,94,84,74,29.91,29.82,11,4,17,0.01
2013-5-9,66,59,56,59,56,54,98,90,74,29.95,29.78,14,8,21,0.01
2013-5-10,68,58,49,54,50,46,94,76,51,30.07,29.95,11,6,17,0.00
2013-5-11,61,54,46,47,35,24,83,51,27,30.23,30.00,21,10,26,0.00
2013-5-12,66,53,36,37,32,25,80,48,24,30.25,30.06,8,3,17,0.00
2013-5-13,84,67,50,57,47,36,73,51,25,30.07,29.78,15,8,22,0.00
2013-5-14,98,80,62,61,55,45,84,48,17,29.78,29.54,18,8,25,0.00
2013-5-15,83,73,62,55,47,42,54,41,28,29.80,29.65,13,6,17,0.00
2013-5-16,82,73,59,64,59,48,89,62,47,29.78,29.65,12,4,17,0.00
2013-5-17,72,66,62,60,60,58,87,79,67,29.80,29.71,6,4,17,0.00
2013-5-18,83,79,63,70,67,59,93,68,56,29.78,29.58,17,11,24,0.54
2013-5-19,76,65,60,68,61,56,96,87,65,29.68,29.39,16,5,20,0.68
2013-5-20,75,66,58,59,56,50,93,72,47,29.59,29.45,15,5,24,0.00
2013-5-21,63,58,53,56,50,47,91,75,61,29.70,29.55,9,3,18,0.00
2013-5-22,61,55,50,52,50,47,92,82,69,29.96,29.70,12,7,15,0.00
2013-5-23,72,60,52,54,49,45,94,71,39,30.17,29.96,9,6,14,0.01
2013-5-24,74,64,51,55,51,46,87,63,49,30.22,29.92,17,9,26,0.00
2013-5-25,81,71,61,70,62,53,97,76,62,30.06,29.83,18,7,21,0.43
2013-5-26,84,75,69,71,67,65,87,78,63,29.88,29.70,14,9,20,0.00
2013-5-27,79,69,60,69,63,58,97,83,62,29.82,29.48,17,8,26,3.05
2013-5-28,80,70,61,67,64,60,97,81,58,29.64,29.54,17,4,21,0.02
2013-5-29,77,70,63,71,66,61,95,88,78,29.61,29.40,18,9,24,1.70
2013-5-30,76,65,60,65,60,55,94,83,63,29.55,29.42,15,7,18,0.16
2013-5-31,78,68,57,58,52,47,86,59,36,29.68,29.55,13,4,17,0.00
2013-6-1,64,59,54,54,51,48,84,74,62,30.00,29.62,15,8,21,0.00
2013-6-2,69,59,49,50,46,44,90,64,41,30.10,29.95,11,5,15,0.00
2013-6-3,75,65,53,56,51,46,82,63,46,29.98,29.73,16,10,21,0.00
2013-6-4,74,67,61,66,60,56,92,80,67,29.92,29.77,12,4,16,0.00
2013-6-5,72,64,55,64,54,50,93,72,48,30.00,29.89,13,6,18,0.12
2013-6-6,72,62,53,58,52,49,90,71,50,29.96,29.90,11,5,14,0.00
2013-6-7,82,65,51,56,51,48,92,64,35,29.99,29.81,8,2,13,0.00
2013-6-8,74,66,61,67,59,52,93,78,62,29.82,29.57,15,7,18,0.71
2013-6-9,73,65,60,61,58,56,92,78,61,29.79,29.66,20,9,27,0.00
2013-6-10,84,70,55,63,59,53,96,71,45,29.83,29.69,15,5,18,0.00
2013-6-11,92,79,67,72,66,54,91,66,28,29.72,29.56,20,8,28,0.03
2013-6-12,88,78,63,73,65,54,86,65,45,29.95,29.52,23,12,28,0.08
2013-6-13,78,66,57,63,58,53,90,74,43,30.04,29.91,9,3,28,0.10
2013-6-14,91,76,63,76,66,59,87,72,41,29.95,29.62,22,9,28,0.00
2013-6-15,80,75,68,70,67,61,93,76,58,29.87,29.71,16,8,28,0.00
2013-6-16,88,75,66,71,66,61,98,75,46,29.91,29.83,14,2,28,0.00
2013-6-17,89,77,66,62,60,56,82,57,35,29.94,29.84,10,4,13,0.00
2013-6-18,85,75,64,64,59,57,83,60,40,29.99,29.87,8,2,14,0.00
2013-6-19,86,77,66,71,64,61,84,65,45,29.91,29.78,16,8,21,0.13
2013-6-20,90,81,70,74,70,63,83,68,57,29.85,29.68,21,14,26,0.00
2013-6-21,96,85,78,74,71,68,79,65,40,29.73,29.64,19,15,25,0.00
2013-6-22,91,81,68,74,68,60,92,65,44,29.89,29.64,19,11,27,0.02
2013-6-23,82,74,65,72,67,62,95,81,58,29.84,29.64,21,6,27,0.90
2013-6-24,86,77,71,75,71,67,94,82,65,29.85,29.60,23,7,26,0.29
2013-6-25,89,81,70,77,71,63,84,72,59,29.66,29.54,20,9,22,0.01
2013-6-26,94,83,74,75,69,62,96,65,37,29.78,29.56,12,4,16,0.00
2013-6-27,87,76,70,74,69,65,91,79,61,29.91,29.78,20,2,20,0.34
2013-6-28,84,77,70,70,63,56,91,66,39,29.92,29.83,20,10,26,0.00
2013-6-29,80,72,65,61,59,56,80,64,45,29.87,29.82,24,13,32,0.00
2013-6-30,79,69,59,62,58,53,92,69,45,30.05,29.87,10,4,26,0.00
2013-7-1,84,71,55,59,55,50,88,60,37,30.13,30.03,8,4,26,0.00
2013-7-2,83,71,61,62,57,53,85,64,39,30.09,29.98,12,2,26,0.00
2013-7-3,87,73,60,63,58,53,92,63,34,30.00,29.86,9,2,26,0.00
2013-7-4,86,75,63,60,57,53,77,54,33,29.90,29.78,16,11,26,0.00
2013-7-5,88,78,68,66,62,58,74,57,42,29.82,29.71,17,12,26,0.00
2013-7-6,87,79,74,69,64,59,66,59,51,29.76,29.67,18,13,26,0.00
2013-7-7,93,83,74,70,66,62,73,58,42,29.80,29.70,15,9,26,0.00
2013-7-8,90,83,79,76,70,66,73,65,53,29.86,29.76,16,7,26,0.00
2013-7-9,99,86,77,76,72,66,79,62,43,29.84,29.72,20,5,26,0.00
2013-7-10,86,78,70,72,68,64,87,71,50,29.99,29.84,9,3,26,0.00
2013-7-11,87,77,67,65,62,59,88,63,42,30.03,29.85,13,7,26,0.00
2013-7-12,93,82,72,73,66,59,70,61,51,29.89,29.77,19,12,23,0.00
2013-7-13,93,83,76,74,71,68,76,67,48,29.85,29.77,18,12,28,0.00
2013-7-14,87,79,72,69,64,58,79,62,38,30.05,29.83,16,8,21,0.00
2013-7-15,89,78,64,70,65,60,90,67,45,30.11,30.01,12,4,19,0.00
2013-7-16,90,80,70,69,66,62,87,62,45,30.16,30.07,12,6,19,0.00
2013-7-17,91,83,72,70,68,66,85,63,45,30.21,30.05,11,6,19,0.00
2013-7-18,92,84,74,71,68,67,82,61,45,30.06,29.82,17,10,22,0.00
2013-7-19,94,83,75,72,68,62,74,61,37,29.85,29.77,13,5,19,0.00
2013-7-20,89,78,67,69,64,56,87,65,33,29.90,29.75,11,3,19,0.00
2013-7-21,90,80,69,73,69,66,92,71,50,29.83,29.66,12,4,19,0.00
2013-7-22,96,83,70,76,70,65,92,68,40,29.75,29.64,13,6,21,0.00
2013-7-23,82,73,65,69,65,63,92,76,58,29.93,29.73,24,4,33,0.15
2013-7-24,87,73,61,68,63,59,94,73,48,30.01,29.90,8,2,19,0.00
2013-7-25,78,74,70,69,65,62,89,75,64,29.97,29.90,12,7,19,0.00
2013-7-26,79,71,61,68,60,50,96,70,39,30.05,29.89,17,8,20,0.00
2013-7-27,76,65,56,53,51,46,87,62,36,30.08,29.95,10,4,19,0.00
2013-7-28,80,66,51,58,52,48,90,63,38,30.01,29.93,7,1,19,0.00
2013-7-29,68,64,60,64,61,57,97,90,70,29.98,29.92,10,4,19,0.57
2013-7-30,78,70,65,69,67,64,98,89,72,30.05,29.95,8,2,19,0.01
2013-7-31,88,75,63,71,67,62,97,78,52,30.07,29.96,5,1,19,0.00
2013-8-1,87,75,64,71,66,61,96,77,44,30.01,29.79,19,7,27,1.05
2013-8-2,84,74,66,71,68,63,96,80,62,29.92,29.70,19,4,26,0.04
2013-8-3,78,69,62,66,62,59,93,79,59,30.10,29.92,7,1,12,0.00
2013-8-4,78,69,62,69,63,58,89,82,67,30.10,29.94,14,4,19,0.00
2013-8-5,86,77,70,75,72,67,95,84,67,29.96,29.75,13,5,15,0.00
2013-8-6,88,79,69,76,72,66,97,82,65,29.83,29.70,14,4,17,0.03
2013-8-7,85,76,68,72,65,60,90,71,44,29.91,29.73,10,3,13,0.00
2013-8-8,79,71,65,68,65,62,91,81,61,29.95,29.86,8,1,12,0.00
2013-8-9,82,73,65,70,66,62,97,78,51,30.07,29.94,10,2,13,0.00
2013-8-10,82,73,61,67,63,57,91,72,57,30.12,29.99,12,5,16,0.00
2013-8-11,85,76,66,70,66,61,87,72,57,30.04,29.89,13,7,19,0.00
2013-8-12,86,76,67,72,68,63,96,78,49,29.98,29.90,8,3,12,0.09
2013-8-13,80,71,63,64,61,58,92,73,49,30.09,29.99,4,1,12,0.00
2013-8-14,76,68,58,62,59,55,92,75,56,30.11,29.98,12,5,17,0.00
2013-8-15,70,66,63,64,62,59,94,87,68,30.03,29.93,15,5,19,0.25
2013-8-16,74,67,61,62,60,59,95,80,62,30.10,30.02,13,4,18,0.00
2013-8-17,78,71,64,61,59,57,82,67,50,30.12,30.02,12,7,15,0.00
2013-8-18,75,65,58,64,58,54,90,79,69,30.08,29.98,9,4,12,0.00
2013-8-19,86,76,66,70,66,62,88,72,58,30.00,29.82,17,11,25,0.00
2013-8-20,88,80,71,72,69,66,85,71,55,29.87,29.80,16,12,23,0.00
2013-8-21,91,81,71,73,70,67,85,69,53,29.89,29.82,14,12,19,0.00
2013-8-22,87,77,70,72,69,66,91,77,58,29.99,29.85,13,3,17,0.03
2013-8-23,89,80,69,73,70,68,96,73,50,29.98,29.85,17,8,24,0.00
2013-8-24,92,84,76,74,71,68,81,67,52,29.94,29.86,20,14,27,0.00
2013-8-25,94,85,75,75,72,70,84,66,49,29.99,29.91,18,14,22,0.00
2013-8-26,94,85,76,73,71,69,83,65,48,29.96,29.83,17,13,26,0.00
2013-8-27,96,85,75,72,69,64,78,59,41,29.85,29.78,16,12,24,0.00
2013-8-28,93,83,71,72,66,64,80,60,40,29.89,29.81,11,8,14,0.00
2013-8-29,96,85,71,74,71,67,91,66,42,29.89,29.78,13,6,16,0.00
2013-8-30,99,85,74,80,72,67,87,67,40,29.80,29.72,9,5,11,0.00
2013-8-31,95,83,73,76,72,68,93,72,42,29.79,29.67,12,3,15,0.00
2013-9-1,86,77,67,72,64,56,94,66,37,29.92,29.65,17,8,22,0.00
2013-9-2,83,70,59,63,58,54,95,70,42,30.03,29.92,8,3,12,0.00
2013-9-3,85,72,57,63,59,52,88,65,46,30.03,29.93,11,4,16,0.00
2013-9-4,86,74,65,65,62,56,84,66,37,30.08,29.95,13,6,19,0.00
2013-9-5,87,78,69,65,63,61,80,61,42,30.08,29.98,11,6,15,0.00
2013-9-6,93,81,70,70,66,60,78,61,46,29.99,29.79,16,11,26,0.00
2013-9-7,93,81,73,73,69,64,92,69,40,29.81,29.76,14,6,18,0.00
2013-9-8,96,82,68,76,71,67,97,74,46,29.82,29.67,9,3,14,0.00
2013-9-9,98,86,75,68,63,57,65,48,29,29.73,29.66,18,12,25,0.00
2013-9-10,96,82,72,71,65,59,94,59,35,29.96,29.73,16,8,21,0.45
2013-9-11,82,74,70,73,70,68,95,88,74,30.05,29.93,11,3,11,0.37
2013-9-12,82,71,63,69,60,53,96,71,41,30.15,30.03,8,2,14,0.00
2013-9-13,76,65,53,57,53,50,91,67,42,30.16,30.00,6,1,9,0.00
2013-9-14,76,68,58,60,54,50,83,64,47,30.01,29.78,14,8,19,0.00
2013-9-15,71,66,62,66,60,56,94,81,68,30.17,29.77,11,5,15,0.13
2013-9-16,64,60,55,56,55,52,94,82,72,30.26,30.13,9,3,17,0.02
2013-9-17,76,66,58,69,63,56,97,91,76,30.13,29.79,14,8,19,0.08
2013-9-18,90,78,68,71,68,66,93,73,51,29.80,29.58,19,13,24,0.00
2013-9-19,81,71,58,70,62,51,92,72,56,29.95,29.61,17,9,25,0.25
2013-9-20,72,60,50,53,48,44,92,66,38,30.05,29.92,18,7,20,0.00
2013-9-21,80,64,48,56,51,46,92,66,41,29.97,29.78,11,6,18,0.00
2013-9-22,80,69,58,56,53,50,85,59,36,29.82,29.69,18,12,24,0.00
2013-9-23,77,68,58,55,52,50,74,58,39,29.75,29.59,23,13,30,0.00
2013-9-24,70,64,56,59,56,53,92,76,63,29.85,29.58,16,7,21,0.00
2013-9-25,79,66,53,62,58,52,98,77,53,29.86,29.65,15,7,23,0.00
2013-9-26,88,76,65,62,60,58,84,61,39,29.69,29.60,22,15,30,0.00
2013-9-27,87,78,71,64,61,59,70,56,42,29.71,29.61,22,16,30,0.00
2013-9-28,76,63,54,64,50,42,93,66,40,30.00,29.56,18,10,23,0.33
2013-9-29,77,62,49,48,45,42,82,57,31,30.01,29.82,15,8,21,0.00
2013-9-30,81,67,55,55,51,47,81,59,35,29.83,29.63,16,11,21,0.00
2013-10-1,82,69,56,55,52,48,88,59,34,29.89,29.69,13,4,17,0.00
2013-10-2,84,72,56,66,59,48,92,66,49,29.88,29.73,17,7,23,0.00
2013-10-3,80,70,61,68,63,60,95,80,65,29.81,29.60,20,6,26,1.39
2013-10-4,85,68,49,71,60,36,93,77,49,29.85,29.51,18,7,26,0.00
2013-10-5,51,46,42,37,35,33,81,66,52,29.90,29.81,13,7,25,0.00
2013-10-6,60,48,43,47,40,33,93,75,42,30.00,29.79,21,11,25,0.06
2013-10-7,74,58,41,45,41,37,86,58,31,30.07,29.94,12,7,18,0.00
2013-10-8,77,64,53,48,45,42,68,50,35,29.94,29.80,20,14,25,0.00
2013-10-9,79,67,56,54,51,47,72,58,40,29.90,29.83,18,13,26,0.00
2013-10-10,80,69,59,60,56,53,82,65,47,29.89,29.68,20,12,25,0.00
2013-10-11,78,67,53,60,52,41,83,62,28,29.84,29.54,23,13,26,0.00
2013-10-12,66,55,45,44,37,32,80,54,28,30.24,29.83,11,5,17,0.00
2013-10-13,70,55,40,41,36,33,79,52,30,30.37,30.22,14,4,22,0.00
2013-10-14,60,55,48,59,47,36,95,76,47,30.23,29.67,22,12,28,0.41
2013-10-15,54,48,44,49,40,36,87,75,67,30.07,29.77,20,12,26,0.00
2013-10-16,56,48,40,41,36,27,89,67,34,30.08,29.93,14,6,18,0.00
2013-10-17,59,46,37,44,38,34,89,73,51,30.05,29.87,19,8,24,0.00
2013-10-18,51,42,35,38,32,26,92,69,39,30.13,30.01,8,5,14,0.00
2013-10-19,63,48,33,40,35,29,90,64,38,30.01,29.78,12,4,15,0.00
2013-10-20,65,52,43,44,39,36,81,63,37,29.99,29.69,16,8,22,0.00
2013-10-21,56,44,32,40,35,30,93,74,49,30.09,29.90,13,5,14,0.00
2013-10-22,52,46,34,44,39,31,89,75,60,30.11,29.86,22,8,28,0.00
2013-10-23,56,41,32,42,36,30,93,82,59,30.21,30.02,17,4,18,0.00
2013-10-24,50,41,32,35,29,24,90,65,37,30.41,30.21,13,6,18,0.00
2013-10-25,59,45,30,35,30,25,83,59,38,30.40,30.05,17,9,22,0.00
2013-10-26,52,45,35,36,32,27,81,61,40,30.21,30.01,16,7,19,0.00
2013-10-27,71,50,32,39,33,26,82,56,30,30.14,29.79,15,8,22,0.00
2013-10-28,53,47,39,41,38,34,84,72,57,30.15,29.90,7,4,14,0.01
2013-10-29,52,47,43,51,46,41,97,93,82,30.12,29.90,7,3,14,0.11
2013-10-30,53,47,42,53,46,40,98,96,90,29.94,29.74,12,6,15,0.06
2013-10-31,59,46,37,47,39,35,97,80,45,29.75,29.50,15,4,24,0.00
2013-11-1,60,48,41,43,38,35,83,71,41,30.00,29.60,22,9,32,0.00
2013-11-2,60,46,34,38,34,30,89,64,33,30.19,29.99,13,6,14,0.00
2013-11-3,58,52,44,41,35,29,65,54,44,30.05,29.67,26,16,43,0.00
2013-11-4,58,50,39,43,39,33,79,65,48,30.10,29.71,15,6,18,0.00
2013-11-5,44,40,34,42,37,32,100,90,78,30.10,29.80,22,7,27,0.97
2013-11-6,44,37,32,35,32,30,94,85,66,30.28,30.06,18,7,20,0.00
2013-11-7,50,40,32,32,28,23,92,65,36,30.42,30.26,13,6,18,0.00
2013-11-8,62,50,36,41,35,27,76,57,37,30.25,29.70,24,10,28,0.00
2013-11-9,61,50,42,38,35,32,79,58,38,30.32,29.90,14,7,19,0.00
2013-11-10,54,44,32,39,33,28,88,66,40,30.38,30.12,11,5,14,0.00
2013-11-11,47,35,19,44,27,12,94,75,55,30.78,30.08,20,11,30,0.00
2013-11-12,35,23,12,14,11,8,85,62,33,30.94,30.59,12,6,14,0.00
2013-11-13,55,39,26,33,23,12,64,53,40,30.59,29.97,21,13,24,0.00
2013-11-14,55,44,36,38,31,25,81,61,51,29.97,29.87,15,5,21,0.00
2013-11-15,57,44,31,45,35,28,92,73,49,29.88,29.55,12,6,21,0.00
2013-11-16,64,54,44,51,40,28,91,63,35,29.55,29.28,18,8,25,0.00
2013-11-17,55,48,36,42,35,28,84,62,40,30.05,29.25,20,9,23,0.00
2013-11-18,57,43,29,33,27,24,84,57,31,30.24,30.04,9,5,21,0.00
2013-11-19,62,50,37,36,28,25,67,45,29,30.15,29.82,18,11,26,0.00
2013-11-20,62,51,38,41,35,27,88,56,40,29.88,29.67,13,7,21,0.00
2013-11-21,38,28,20,35,22,17,91,81,70,30.61,29.87,22,15,34,0.00
2013-11-22,32,22,13,17,11,7,83,64,44,30.77,30.61,15,7,25,0.00
2013-11-23,25,20,15,16,9,4,84,64,42,30.93,30.68,10,4,25,0.00
2013-11-24,32,23,13,14,9,6,77,58,42,30.80,30.25,16,10,25,0.00
2013-11-25,45,34,26,31,23,10,79,65,49,30.26,30.14,13,7,25,0.00
2013-11-26,33,26,17,25,16,8,92,65,40,30.47,30.22,25,10,30,0.00
2013-11-27,35,24,11,20,13,7,92,65,45,30.47,30.07,15,8,25,0.00
2013-11-28,36,28,22,23,19,15,83,69,48,30.50,30.12,14,6,25,0.00
2013-11-29,50,33,17,30,22,13,85,66,44,30.50,30.13,11,5,25,0.00
2013-11-30,63,41,27,35,28,22,85,63,33,30.14,30.03,11,3,25,0.00
2013-12-1,50,37,26,33,28,23,89,72,50,30.15,29.84,4,1,25,0.00
2013-12-2,64,47,32,37,33,27,86,63,35,29.83,29.48,8,4,25,0.00
2013-12-3,43,38,34,35,32,30,92,80,71,29.68,29.45,12,6,25,0.00
2013-12-4,34,22,16,31,17,8,100,82,69,30.15,29.64,21,15,25,0.00
2013-12-5,16,12,7,8,1,-3,73,62,48,30.51,30.13,19,11,25,0.00
2013-12-6,14,6,-1,-2,-4,-7,76,62,46,30.79,30.51,14,8,18,0.00
2013-12-7,12,5,-3,7,-3,-8,83,71,53,30.84,30.47,6,2,15,0.00
2013-12-8,19,14,8,15,10,5,92,86,81,30.47,30.06,5,1,15,0.00
2013-12-9,15,6,-4,7,-1,-9,89,73,60,30.44,30.18,16,6,19,0.00
2013-12-10,30,22,16,25,15,8,86,72,65,30.33,30.17,15,6,22,0.03
2013-12-11,30,12,2,27,4,-4,89,71,59,30.72,30.29,19,8,23,0.00
2013-12-12,34,22,10,24,15,4,84,74,65,30.53,30.11,14,6,16,0.00
2013-12-13,29,23,16,24,19,13,91,86,81,30.12,29.90,12,3,19,0.00
2013-12-14,24,19,14,19,15,10,91,83,74,30.28,30.12,13,7,18,0.00
2013-12-15,33,24,17,27,21,14,92,87,77,30.21,29.98,6,1,15,0.01
2013-12-16,51,30,14,36,24,12,92,81,54,30.21,29.99,11,2,13,0.00
2013-12-17,42,34,27,30,24,18,91,68,37,30.32,30.09,17,6,22,0.00
2013-12-18,58,43,32,32,28,22,68,57,37,30.09,29.68,16,8,19,0.00
2013-12-19,39,30,17,30,24,14,89,79,65,29.91,29.70,18,7,23,0.00
2013-12-20,19,16,12,14,12,8,95,84,80,30.05,29.91,17,9,22,0.00
2013-12-21,25,21,18,20,16,14,89,82,72,29.95,29.82,12,3,17,0.00
2013-12-22,23,18,10,19,12,4,91,77,62,30.46,29.91,18,11,22,0.00
2013-12-23,14,9,4,4,0,-3,80,66,51,30.69,30.45,16,8,17,0.00
2013-12-24,28,18,10,25,13,2,93,81,64,30.60,30.18,15,8,20,0.00
2013-12-25,43,30,19,29,22,17,92,74,50,30.34,30.27,22,8,30,0.00
2013-12-26,52,36,25,26,22,19,79,60,31,30.28,30.12,11,5,14,0.00
2013-12-27,62,41,24,31,25,18,84,57,25,30.27,30.06,17,7,23,0.00
2013-12-28,60,42,17,31,26,8,80,58,27,30.15,29.72,28,14,32,0.00
2013-12-29,17,11,6,9,-6,-13,74,47,26,30.43,30.15,25,12,35,0.00
2013-12-30,42,22,8,27,8,-8,82,54,43,30.35,30.11,24,9,29,0.00
2013-12-31,43,20,9,26,12,5,87,74,47,30.33,30.01,10,3,15,0.00
2014-1-1,12,9,5,7,5,0,86,82,78,30.49,30.15,14,8,20,0.00
2014-1-2,13,6,1,6,1,-3,86,80,70,30.56,30.45,8,3,14,0.00